createdAt,value
2023-02-17T00:01:14.925Z,8.45
2023-02-17T00:03:41.825Z,10.00
2023-02-17T00:06:11.429Z,8.32
2023-02-17T00:08:38.294Z,6.90
2023-02-17T00:11:05.448Z,12.38
2023-02-17T00:13:32.562Z,7.30
2023-02-17T00:15:59.935Z,6.55
2023-02-17T00:18:26.877Z,9.15
2023-02-17T00:20:53.686Z,7.78
2023-02-17T00:23:20.606Z,8.13
2023-02-17T00:25:47.477Z,5.82
2023-02-17T00:28:14.445Z,7.93
2023-02-17T00:30:41.224Z,8.07
2023-02-17T00:33:08.062Z,6.05
2023-02-17T00:35:40.571Z,8.98
2023-02-17T00:38:08.839Z,7.50
2023-02-17T00:40:35.646Z,7.70
2023-02-17T00:43:02.491Z,6.38
2023-02-17T00:45:29.326Z,7.78
2023-02-17T00:47:56.157Z,6.75
2023-02-17T00:50:23.019Z,5.88
2023-02-17T00:52:49.936Z,6.18
2023-02-17T00:55:17.109Z,7.57
2023-02-17T00:57:44.075Z,7.53
2023-02-17T01:00:11.397Z,7.80
2023-02-17T01:02:38.292Z,8.23
2023-02-17T01:05:05.717Z,7.13
2023-02-17T01:07:32.531Z,8.30
2023-02-17T01:09:59.283Z,8.57
2023-02-17T01:12:26.054Z,9.90
2023-02-17T01:14:52.879Z,7.97
2023-02-17T01:17:19.662Z,7.63
2023-02-17T01:19:46.480Z,6.78
2023-02-17T01:22:13.290Z,8.07
2023-02-17T01:24:40.421Z,7.35
2023-02-17T01:27:07.459Z,7.65
2023-02-17T01:29:34.283Z,6.45
2023-02-17T01:32:03.150Z,9.05
2023-02-17T01:34:30.045Z,9.05
2023-02-17T01:36:56.918Z,6.85
2023-02-17T01:39:23.731Z,8.50
2023-02-17T01:41:50.742Z,8.55
2023-02-17T01:44:23.071Z,8.25
2023-02-17T01:46:52.135Z,9.63
2023-02-17T01:49:40.331Z,7.60
2023-02-17T01:52:18.733Z,6.35
2023-02-17T01:54:47.811Z,7.78
2023-02-17T01:57:19.249Z,7.40
2023-02-17T01:59:46.947Z,7.28
2023-02-17T02:02:14.390Z,10.35
2023-02-17T02:04:45.429Z,10.93
2023-02-17T02:07:18.761Z,9.15
2023-02-17T02:09:55.220Z,8.57
2023-02-17T02:12:28.781Z,6.50
2023-02-17T02:15:00.952Z,6.20
2023-02-17T02:18:02.967Z,7.32
2023-02-17T02:20:48.026Z,6.47
2023-02-17T02:23:39.178Z,9.13
2023-02-17T02:26:30.281Z,8.70
2023-02-17T02:29:14.325Z,7.32
2023-02-17T02:32:08.322Z,7.05
2023-02-17T02:35:01.139Z,9.50
2023-02-17T02:37:36.157Z,5.85
2023-02-17T02:40:08.209Z,5.53
2023-02-17T02:42:38.727Z,6.55
2023-02-17T02:45:09.915Z,7.72
2023-02-17T02:48:09.283Z,6.35
2023-02-17T02:51:00.486Z,8.88
2023-02-17T02:53:55.015Z,8.48
2023-02-17T02:56:47.677Z,7.45
2023-02-17T02:59:33.450Z,7.25
2023-02-17T03:02:16.900Z,8.88
2023-02-17T03:04:59.744Z,7.70
2023-02-17T03:07:32.340Z,8.13
2023-02-17T03:10:00.360Z,6.00
2023-02-17T03:12:28.387Z,11.35
2023-02-17T03:15:05.001Z,6.97
2023-02-17T03:17:33.167Z,7.03
2023-02-17T03:20:04.743Z,7.35
2023-02-17T03:22:38.005Z,7.85
2023-02-17T03:25:05.155Z,6.88
2023-02-17T03:27:32.037Z,6.50
2023-02-17T03:29:59.244Z,9.45
2023-02-17T03:32:26.167Z,6.35
2023-02-17T03:34:53.072Z,7.40
2023-02-17T03:37:19.879Z,8.32
2023-02-17T03:39:46.766Z,7.93
2023-02-17T03:42:13.574Z,6.32
2023-02-17T03:44:40.347Z,6.68
2023-02-17T03:47:07.324Z,7.07
2023-02-17T03:49:34.427Z,7.45
2023-02-17T03:52:01.208Z,5.82
2023-02-17T03:54:28.087Z,8.25
2023-02-17T03:56:54.870Z,7.30
2023-02-17T03:59:21.988Z,6.68
2023-02-17T04:01:48.843Z,6.60
2023-02-17T04:04:15.720Z,6.20
2023-02-17T04:06:42.695Z,5.97
2023-02-17T04:09:09.617Z,8.88
2023-02-17T04:11:36.611Z,4.47
2023-02-17T04:14:03.586Z,8.35
2023-02-17T04:16:30.376Z,5.85
2023-02-17T04:18:57.197Z,5.47
2023-02-17T04:21:24.100Z,7.75
2023-02-17T04:23:50.985Z,5.97
2023-02-17T04:26:17.803Z,5.85
2023-02-17T04:28:44.598Z,4.47
2023-02-17T04:31:11.796Z,5.72
2023-02-17T04:33:38.826Z,4.63
2023-02-17T04:36:06.466Z,4.68
2023-02-17T04:38:33.882Z,5.75
2023-02-17T04:41:01.505Z,6.43
2023-02-17T04:43:29.069Z,5.15
2023-02-17T04:45:56.665Z,4.63
2023-02-17T04:48:23.975Z,5.25
2023-02-17T04:50:51.127Z,8.88
2023-02-17T04:53:18.692Z,5.00
2023-02-17T04:55:49.551Z,4.57
2023-02-17T04:58:16.534Z,3.97
2023-02-17T05:00:43.323Z,5.68
2023-02-17T05:03:10.124Z,6.10
2023-02-17T05:05:36.899Z,5.15
2023-02-17T05:08:03.897Z,5.40
2023-02-17T05:10:31.044Z,5.10
2023-02-17T05:12:57.911Z,5.85
2023-02-17T05:15:24.708Z,5.15
2023-02-17T05:17:51.513Z,5.38
2023-02-17T05:20:18.609Z,4.43
2023-02-17T05:22:45.396Z,3.85
2023-02-17T05:25:12.243Z,3.72
2023-02-17T05:27:39.087Z,4.13
2023-02-17T05:30:06.699Z,4.82
2023-02-17T05:32:33.612Z,4.63
2023-02-17T05:35:00.407Z,4.90
2023-02-17T05:37:27.286Z,4.22
2023-02-17T05:39:54.083Z,4.05
2023-02-17T05:42:20.994Z,3.22
2023-02-17T05:44:47.872Z,4.88
2023-02-17T05:47:14.755Z,4.10
2023-02-17T05:49:41.510Z,5.47
2023-02-17T05:52:08.284Z,5.43
2023-02-17T05:54:35.129Z,3.33
2023-02-17T05:57:02.325Z,4.03
2023-02-17T05:59:29.256Z,6.85
2023-02-17T06:01:56.031Z,3.97
2023-02-17T06:04:23.097Z,4.35
2023-02-17T06:06:49.991Z,3.97
2023-02-17T06:09:17.206Z,6.15
2023-02-17T06:11:44.202Z,4.35
2023-02-17T06:14:11.019Z,8.48
2023-02-17T06:16:37.854Z,4.15
2023-02-17T06:19:05.360Z,6.88
2023-02-17T06:21:33.128Z,5.88
2023-02-17T06:23:59.991Z,3.40
2023-02-17T06:26:26.934Z,5.60
2023-02-17T06:28:53.849Z,4.00
2023-02-17T06:31:20.930Z,3.03
2023-02-17T06:33:48.147Z,5.03
2023-02-17T06:36:15.013Z,4.00
2023-02-17T06:38:41.868Z,4.45
2023-02-17T06:41:08.778Z,3.30
2023-02-17T06:43:35.619Z,5.53
2023-02-17T06:46:02.498Z,3.63
2023-02-17T06:48:29.479Z,4.30
2023-02-17T06:50:56.273Z,7.90
2023-02-17T06:53:23.219Z,6.20
2023-02-17T06:55:50.102Z,4.55
2023-02-17T06:58:17.065Z,4.03
2023-02-17T07:00:43.864Z,3.78
2023-02-17T07:03:10.757Z,5.60
2023-02-17T07:05:39.947Z,7.13
2023-02-17T07:08:06.867Z,6.07
2023-02-17T07:10:33.893Z,3.42
2023-02-17T07:13:00.854Z,3.83
2023-02-17T07:15:27.759Z,6.88
2023-02-17T07:17:54.702Z,4.47
2023-02-17T07:20:21.706Z,5.43
2023-02-17T07:22:48.532Z,3.45
2023-02-17T07:25:15.546Z,4.10
2023-02-17T07:27:42.365Z,4.60
2023-02-17T07:30:09.720Z,4.43
2023-02-17T07:32:36.614Z,4.13
2023-02-17T07:35:03.799Z,4.78
2023-02-17T07:37:30.633Z,5.60
2023-02-17T07:39:57.570Z,5.47
2023-02-17T07:42:26.905Z,3.55
2023-02-17T07:44:53.913Z,6.13
2023-02-17T07:47:20.723Z,3.25
2023-02-17T07:49:47.525Z,3.83
2023-02-17T07:52:17.778Z,3.67
2023-02-17T07:54:44.877Z,3.30
2023-02-17T07:57:11.736Z,4.45
2023-02-17T07:59:38.559Z,2.58
2023-02-17T08:02:05.401Z,3.88
2023-02-17T08:04:33.031Z,3.22
2023-02-17T08:06:59.905Z,3.40
2023-02-17T08:09:45.615Z,2.65
2023-02-17T08:12:35.821Z,2.67
2023-02-17T08:15:02.945Z,2.85
2023-02-17T08:17:30.203Z,2.80
2023-02-17T08:19:57.047Z,3.72
2023-02-17T08:22:24.253Z,3.17
2023-02-17T08:24:51.686Z,2.40
2023-02-17T08:27:19.303Z,2.60
2023-02-17T08:29:46.379Z,3.53
2023-02-17T08:32:15.545Z,3.15
2023-02-17T08:34:42.655Z,3.05
2023-02-17T08:37:10.531Z,2.50
2023-02-17T08:39:38.261Z,2.30
2023-02-17T08:42:05.828Z,2.70
2023-02-17T08:44:35.950Z,2.15
2023-02-17T08:47:05.106Z,2.75
2023-02-17T08:49:32.752Z,2.53
2023-02-17T08:52:00.538Z,2.45
2023-02-17T08:54:27.822Z,3.35
2023-02-17T08:56:54.744Z,2.13
2023-02-17T08:59:21.587Z,5.57
2023-02-17T09:01:48.439Z,2.55
2023-02-17T09:04:16.316Z,2.10
2023-02-17T09:06:50.512Z,2.08
2023-02-17T09:09:22.701Z,3.67
2023-02-17T09:11:49.825Z,2.85
2023-02-17T09:14:16.781Z,2.10
2023-02-17T09:16:43.608Z,2.28
2023-02-17T09:19:10.580Z,1.83
2023-02-17T09:21:37.408Z,3.38
2023-02-17T09:24:04.501Z,1.80
2023-02-17T09:26:31.445Z,2.78
2023-02-17T09:28:58.268Z,2.20
2023-02-17T09:31:26.966Z,3.05
2023-02-17T09:33:54.543Z,1.80
2023-02-17T09:36:27.725Z,2.40
2023-02-17T09:38:54.741Z,2.50
2023-02-17T09:41:24.555Z,2.13
2023-02-17T09:43:52.377Z,2.47
2023-02-17T09:47:00.638Z,3.00
2023-02-17T09:49:34.987Z,2.67
2023-02-17T09:52:28.626Z,1.80
2023-02-17T09:55:09.753Z,1.92
2023-02-17T09:57:51.281Z,1.75
2023-02-17T10:00:25.338Z,2.05
2023-02-17T10:03:13.027Z,1.60
2023-02-17T10:05:46.399Z,2.40
2023-02-17T10:08:21.168Z,3.20
2023-02-17T10:10:50.852Z,2.20
2023-02-17T10:13:21.226Z,1.90
2023-02-17T10:15:53.782Z,1.52
2023-02-17T10:18:46.705Z,1.77
2023-02-17T10:21:22.172Z,1.65
2023-02-17T10:23:51.281Z,1.77
2023-02-17T10:27:09.113Z,1.63
2023-02-17T10:29:57.679Z,2.75
2023-02-17T10:32:26.826Z,1.75
2023-02-17T10:35:14.128Z,1.88
2023-02-17T10:38:01.341Z,1.80
2023-02-17T10:40:29.595Z,1.65
2023-02-17T10:43:01.207Z,1.90
2023-02-17T10:45:36.065Z,1.70
2023-02-17T10:48:06.827Z,2.08
2023-02-17T10:50:35.086Z,1.90
2023-02-17T10:53:01.963Z,2.05
2023-02-17T10:55:54.901Z,1.90
2023-02-17T10:58:48.730Z,1.52
2023-02-17T11:01:15.748Z,1.33
2023-02-17T11:03:42.776Z,1.80
2023-02-17T11:06:24.085Z,1.90
2023-02-17T11:08:56.120Z,1.80
2023-02-17T11:11:29.329Z,1.60
2023-02-17T11:14:08.538Z,2.08
2023-02-17T11:16:41.933Z,1.60
2023-02-17T11:19:26.327Z,1.70
2023-02-17T11:21:55.579Z,2.67
2023-02-17T11:24:22.924Z,2.50
2023-02-17T11:27:07.985Z,1.70
2023-02-17T11:29:34.819Z,2.00
2023-02-17T11:32:07.372Z,1.90
2023-02-17T11:34:40.069Z,1.98
2023-02-17T11:37:09.995Z,2.17
2023-02-17T11:39:39.630Z,1.90
2023-02-17T11:42:24.368Z,1.92
2023-02-17T11:47:33.622Z,2.10
2023-02-17T11:50:13.311Z,1.80
2023-02-17T11:53:20.126Z,1.45
2023-02-17T11:55:59.513Z,1.98
2023-02-17T11:58:41.494Z,1.88
2023-02-17T12:01:14.585Z,2.10
2023-02-17T12:03:52.344Z,1.83
2023-02-17T12:06:31.256Z,1.83
2023-02-17T12:09:04.937Z,1.67
2023-02-17T12:11:37.643Z,2.30
2023-02-17T12:14:31.256Z,2.85
2023-02-17T12:17:18.867Z,1.90
2023-02-17T12:20:02.627Z,1.80
2023-02-17T12:23:04.547Z,1.50
2023-02-17T12:25:58.490Z,1.60
2023-02-17T12:28:43.281Z,3.67
2023-02-17T12:33:45.516Z,1.27
2023-02-17T12:36:15.929Z,1.73
2023-02-17T12:38:52.175Z,1.15
2023-02-17T12:41:36.565Z,1.60
2023-02-17T12:44:19.549Z,1.30
2023-02-17T12:46:50.450Z,0.90
2023-02-17T12:49:40.061Z,0.98
2023-02-17T12:52:16.717Z,0.90
2023-02-17T12:55:06.299Z,1.33
2023-02-17T12:57:44.208Z,1.30
2023-02-17T13:00:23.884Z,1.00
2023-02-17T13:02:50.980Z,1.10
2023-02-17T13:05:27.832Z,1.10
2023-02-17T13:08:07.286Z,1.00
2023-02-17T13:10:38.575Z,0.90
2023-02-17T13:13:11.175Z,1.45
2023-02-17T13:15:42.275Z,2.90
2023-02-17T13:18:29.162Z,2.70
2023-02-17T13:20:57.827Z,2.00
2023-02-17T13:23:29.871Z,1.50
2023-02-17T13:26:23.680Z,1.20
2023-02-17T13:28:53.392Z,1.45
2023-02-17T13:31:23.513Z,1.60
2023-02-17T13:33:56.161Z,1.55
2023-02-17T13:36:28.471Z,1.50
2023-02-17T13:38:57.339Z,1.52
2023-02-17T13:41:24.335Z,1.60
2023-02-17T13:43:51.276Z,1.40
2023-02-17T13:46:27.212Z,1.48
2023-02-17T13:49:01.593Z,1.50
2023-02-17T13:51:29.779Z,1.70
2023-02-17T13:53:56.800Z,1.63
2023-02-17T13:56:30.955Z,1.33
2023-02-17T13:59:17.983Z,1.55
2023-02-17T14:01:46.385Z,1.40
2023-02-17T14:04:26.819Z,1.52
2023-02-17T14:06:56.997Z,1.33
2023-02-17T14:09:27.442Z,1.48
2023-02-17T14:11:55.688Z,1.67
2023-02-17T14:14:27.563Z,1.60
2023-02-17T14:17:32.683Z,1.75
2023-02-17T14:20:00.973Z,2.45
2023-02-17T14:22:34.087Z,1.60
2023-02-17T14:25:08.767Z,1.42
2023-02-17T14:27:50.213Z,1.70
2023-02-17T14:30:39.726Z,1.80
2023-02-17T14:33:16.300Z,1.70
2023-02-17T14:35:56.750Z,1.60
2023-02-17T14:38:35.120Z,1.50
2023-02-17T14:41:01.951Z,1.45
2023-02-17T14:43:29.297Z,1.40
2023-02-17T14:45:56.642Z,1.60
2023-02-17T14:48:27.561Z,1.95
2023-02-17T14:50:56.993Z,2.15
2023-02-17T14:53:32.750Z,1.80
2023-02-17T14:56:24.108Z,1.52
2023-02-17T14:58:53.030Z,1.67
2023-02-17T15:01:22.757Z,1.85
2023-02-17T15:03:50.147Z,1.80
2023-02-17T15:06:28.846Z,1.80
2023-02-17T15:08:57.183Z,2.00
2023-02-17T15:11:28.912Z,2.20
2023-02-17T15:13:55.864Z,2.15
2023-02-17T15:16:22.775Z,2.30
2023-02-17T15:18:51.006Z,2.70
2023-02-17T15:21:48.858Z,2.42
2023-02-17T15:24:19.534Z,4.35
2023-02-17T15:26:47.819Z,4.53
2023-02-17T15:29:17.468Z,2.80
2023-02-17T15:31:45.988Z,2.33
2023-02-17T15:34:19.326Z,2.72
2023-02-17T15:36:47.169Z,2.35
2023-02-17T15:39:16.247Z,2.50
2023-02-17T15:41:44.852Z,2.63
2023-02-17T15:44:27.296Z,3.72
2023-02-17T15:46:55.534Z,3.53
2023-02-17T15:49:22.971Z,3.10
2023-02-17T15:51:49.862Z,2.47
2023-02-17T15:54:19.288Z,2.70
2023-02-17T15:56:52.067Z,3.10
2023-02-17T15:59:23.455Z,2.53
2023-02-17T16:01:53.229Z,2.28
2023-02-17T16:04:20.204Z,2.08
2023-02-17T16:06:46.980Z,3.03
2023-02-17T16:09:13.942Z,2.42
2023-02-17T16:11:50.338Z,2.53
2023-02-17T16:14:28.374Z,2.20
2023-02-17T16:16:55.943Z,2.40
2023-02-17T16:19:22.965Z,1.90
2023-02-17T16:21:49.983Z,2.63
2023-02-17T16:24:16.831Z,2.00
2023-02-17T16:26:44.106Z,2.22
2023-02-17T16:29:20.100Z,2.03
2023-02-17T16:31:48.199Z,1.83
2023-02-17T16:34:22.194Z,1.65
2023-02-17T16:36:51.787Z,2.05
2023-02-17T16:39:20.958Z,2.72
2023-02-17T16:41:48.663Z,1.80
2023-02-17T16:44:17.725Z,2.00
2023-02-17T16:46:53.167Z,1.80
2023-02-17T16:49:36.167Z,1.75
2023-02-17T16:52:07.184Z,2.10
2023-02-17T16:54:35.740Z,1.60
2023-02-17T16:57:03.848Z,2.08
2023-02-17T16:59:31.518Z,1.70
2023-02-17T17:01:58.867Z,1.60
2023-02-17T17:04:25.756Z,2.55
2023-02-17T17:06:52.874Z,1.77
2023-02-17T17:09:23.405Z,1.55
2023-02-17T17:11:50.781Z,2.03
2023-02-17T17:14:18.362Z,1.50
2023-02-17T17:16:51.802Z,1.67
2023-02-17T17:19:18.779Z,1.60
2023-02-17T17:21:45.616Z,2.20
2023-02-17T17:24:12.483Z,1.60
2023-02-17T17:26:44.487Z,1.58
2023-02-17T17:29:16.292Z,1.65
2023-02-17T17:31:43.827Z,1.50
2023-02-17T17:34:10.726Z,1.50
2023-02-17T17:36:43.928Z,1.70
2023-02-17T17:39:22.507Z,1.50
2023-02-17T17:41:50.424Z,1.15
2023-02-17T17:44:18.128Z,1.38
2023-02-17T17:46:45.108Z,2.15
2023-02-17T17:49:14.694Z,1.45
2023-02-17T17:51:41.879Z,1.27
2023-02-17T17:54:09.515Z,1.88
2023-02-17T17:56:39.743Z,3.08
2023-02-17T17:59:06.920Z,4.30
2023-02-17T18:01:34.200Z,7.18
2023-02-17T18:04:02.016Z,3.22
2023-02-17T18:06:47.285Z,1.73
2023-02-17T18:09:31.263Z,1.70
2023-02-17T18:12:03.439Z,1.40
2023-02-17T18:14:31.928Z,1.50
2023-02-17T18:16:59.143Z,1.40
2023-02-17T18:19:26.560Z,1.50
2023-02-17T18:21:53.656Z,1.50
2023-02-17T18:24:20.649Z,1.50
2023-02-17T18:26:47.711Z,1.20
2023-02-17T18:29:14.633Z,1.30
2023-02-17T18:31:41.546Z,3.33
2023-02-17T18:34:08.443Z,1.42
2023-02-17T18:36:35.563Z,1.38
2023-02-17T18:39:02.898Z,1.40
2023-02-17T18:41:32.783Z,1.48
2023-02-17T18:44:01.779Z,1.60
2023-02-17T18:46:29.065Z,1.50
2023-02-17T18:48:56.962Z,1.25
2023-02-17T18:51:27.450Z,1.60
2023-02-17T18:53:55.893Z,1.50
2023-02-17T18:56:26.522Z,1.52
2023-02-17T18:58:57.730Z,1.50
2023-02-17T19:01:27.785Z,1.48
2023-02-17T19:03:55.824Z,2.20
2023-02-17T19:06:25.925Z,1.63
2023-02-17T19:08:52.790Z,1.58
2023-02-17T19:11:21.196Z,1.55
2023-02-17T19:13:49.135Z,1.70
2023-02-17T19:16:25.922Z,1.88
2023-02-17T19:18:53.162Z,1.60
2023-02-17T19:21:20.646Z,1.63
2023-02-17T19:23:47.697Z,1.70
2023-02-17T19:26:16.653Z,1.70
2023-02-17T19:28:44.152Z,1.48
2023-02-17T19:31:14.417Z,1.70
2023-02-17T19:33:41.459Z,1.65
2023-02-17T19:36:10.811Z,1.70
2023-02-17T19:38:38.080Z,1.52
2023-02-17T19:41:07.599Z,1.80
2023-02-17T19:43:35.220Z,1.95
2023-02-17T19:46:02.106Z,1.90
2023-02-17T19:48:29.040Z,1.77
2023-02-17T19:51:01.379Z,3.72
2023-02-17T19:53:28.539Z,2.88
2023-02-17T19:55:55.313Z,2.10
2023-02-17T19:58:22.120Z,2.80
2023-02-17T20:00:48.983Z,2.85
2023-02-17T20:03:16.143Z,2.72
2023-02-17T20:05:42.943Z,3.15
2023-02-17T20:08:09.738Z,2.00
2023-02-17T20:10:39.748Z,3.03
2023-02-17T20:13:06.725Z,1.70
2023-02-17T20:15:33.677Z,2.33
2023-02-17T20:18:01.013Z,2.28
2023-02-17T20:20:27.929Z,2.10
2023-02-17T20:22:54.752Z,2.33
2023-02-17T20:25:21.549Z,3.05
2023-02-17T20:27:48.462Z,2.47
2023-02-17T20:30:15.660Z,3.10
2023-02-17T20:32:42.681Z,2.20
2023-02-17T20:35:13.480Z,2.10
2023-02-17T20:37:40.499Z,2.20
2023-02-17T20:40:07.991Z,1.95
2023-02-17T20:42:35.235Z,2.50
2023-02-17T20:45:02.879Z,1.70
2023-02-17T20:47:29.889Z,2.08
2023-02-17T20:49:56.711Z,2.38
2023-02-17T20:52:23.756Z,2.75
2023-02-17T20:54:51.128Z,2.83
2023-02-17T20:57:18.169Z,3.28
2023-02-17T20:59:45.856Z,3.03
2023-02-17T21:02:12.940Z,2.75
2023-02-17T21:04:39.964Z,2.90
2023-02-17T21:07:06.859Z,2.97
2023-02-17T21:09:34.286Z,2.75
2023-02-17T21:12:01.503Z,2.28
2023-02-17T21:14:28.408Z,2.00
2023-02-17T21:16:55.331Z,2.58
2023-02-17T21:19:22.280Z,2.63
2023-02-17T21:21:49.216Z,2.40
2023-02-17T21:24:17.471Z,3.28
2023-02-17T21:26:44.290Z,2.58
2023-02-17T21:29:11.097Z,2.60
2023-02-17T21:31:38.107Z,2.45
2023-02-17T21:34:05.599Z,4.20
2023-02-17T21:36:32.436Z,2.33
2023-02-17T21:38:59.294Z,2.60
2023-02-17T21:41:27.770Z,2.60
2023-02-17T21:44:13.638Z,2.65
2023-02-17T21:46:42.972Z,2.20
2023-02-17T21:49:11.447Z,2.33
2023-02-17T21:51:39.558Z,2.35
2023-02-17T21:54:09.768Z,2.22
2023-02-17T21:56:36.753Z,2.38
2023-02-17T21:59:04.825Z,2.42
2023-02-17T22:01:32.153Z,2.45
2023-02-17T22:03:59.465Z,2.10
2023-02-17T22:06:31.342Z,2.40
2023-02-17T22:08:58.783Z,2.15
2023-02-17T22:11:29.077Z,2.40
2023-02-17T22:14:01.382Z,2.10
2023-02-17T22:16:33.481Z,2.10
2023-02-17T22:19:00.869Z,2.22
2023-02-17T22:21:28.676Z,1.98
2023-02-17T22:23:57.079Z,2.28
2023-02-17T22:26:25.995Z,1.90
2023-02-17T22:28:53.916Z,1.95
2023-02-17T22:31:26.913Z,1.80
2023-02-17T22:33:55.526Z,2.00
2023-02-17T22:36:23.069Z,1.85
2023-02-17T22:38:50.514Z,2.15
2023-02-17T22:41:21.951Z,1.70
2023-02-17T22:43:49.972Z,1.70
2023-02-17T22:46:19.388Z,1.90
2023-02-17T22:48:48.193Z,1.70
2023-02-17T22:51:18.616Z,3.08
2023-02-17T22:53:45.668Z,1.80
2023-02-17T22:56:12.762Z,2.00
2023-02-17T22:58:39.640Z,1.88
2023-02-17T23:01:12.567Z,2.00
2023-02-17T23:03:40.434Z,1.88
2023-02-17T23:06:15.873Z,2.10
2023-02-17T23:08:43.308Z,1.80
2023-02-17T23:11:12.237Z,1.63
2023-02-17T23:13:39.938Z,1.75
2023-02-17T23:16:08.422Z,2.33
2023-02-17T23:18:36.015Z,2.17
2023-02-17T23:21:13.381Z,2.33
2023-02-17T23:23:40.151Z,2.00
2023-02-17T23:26:07.456Z,2.00
2023-02-17T23:28:34.770Z,1.67
2023-02-17T23:31:01.651Z,1.80
2023-02-17T23:33:28.444Z,1.90
2023-02-17T23:35:55.263Z,1.98
2023-02-17T23:38:22.283Z,1.90
2023-02-17T23:40:51.475Z,1.88
2023-02-17T23:43:19.136Z,2.08
2023-02-17T23:45:46.013Z,2.17
2023-02-17T23:48:13.155Z,2.10
2023-02-17T23:50:40.670Z,2.78
2023-02-17T23:53:08.447Z,4.72
2023-02-17T23:55:35.229Z,2.20
2023-02-17T23:58:02.158Z,2.15
